createdAt,value
2018-06-24T00:01:58.967Z,6.40
2018-06-24T00:06:33.490Z,5.17
2018-06-24T00:11:08.053Z,4.80
2018-06-24T00:15:42.366Z,4.37
2018-06-24T00:20:16.963Z,4.40
2018-06-24T00:24:51.288Z,5.33
2018-06-24T00:29:25.865Z,5.97
2018-06-24T00:34:00.286Z,4.80
2018-06-24T00:38:34.732Z,6.03
2018-06-24T00:43:09.177Z,4.67
2018-06-24T00:47:43.894Z,5.87
2018-06-24T00:52:18.257Z,4.63
2018-06-24T00:56:52.770Z,4.60
2018-06-24T01:01:27.137Z,5.73
2018-06-24T01:06:01.577Z,7.23
2018-06-24T01:10:36.225Z,4.50
2018-06-24T01:15:11.118Z,5.13
2018-06-24T01:19:45.490Z,5.53
2018-06-24T01:24:20.017Z,4.93
2018-06-24T01:28:54.362Z,6.00
2018-06-24T01:33:29.555Z,6.50
2018-06-24T01:38:03.990Z,5.17
2018-06-24T01:42:38.529Z,5.30
2018-06-24T01:47:13.692Z,5.03
2018-06-24T01:51:48.273Z,5.93
2018-06-24T01:56:22.817Z,6.30
2018-06-24T02:00:57.409Z,5.80
2018-06-24T02:05:31.643Z,5.67
2018-06-24T02:10:06.197Z,7.20
2018-06-24T02:14:40.470Z,7.67
2018-06-24T02:19:15.185Z,6.67
2018-06-24T02:23:49.534Z,5.70
2018-06-24T02:28:24.061Z,5.70
2018-06-24T02:32:58.473Z,5.80
2018-06-24T02:37:32.801Z,5.97
2018-06-24T02:42:07.194Z,7.83
2018-06-24T02:46:41.710Z,6.97
2018-06-24T02:51:15.956Z,5.83
2018-06-24T02:55:50.428Z,4.63
2018-06-24T03:00:24.696Z,5.50
2018-06-24T03:04:59.529Z,4.77
2018-06-24T03:09:33.966Z,6.53
2018-06-24T03:14:08.554Z,6.10
2018-06-24T03:18:42.955Z,5.83
2018-06-24T03:23:17.277Z,5.93
2018-06-24T03:27:51.509Z,5.43
2018-06-24T03:32:25.941Z,6.30
2018-06-24T03:37:01.426Z,5.27
2018-06-24T03:41:35.830Z,6.00
2018-06-24T03:46:10.361Z,5.00
2018-06-24T03:50:44.703Z,5.97
2018-06-24T03:55:19.284Z,6.33
2018-06-24T03:59:53.861Z,5.83
2018-06-24T04:04:28.442Z,6.03
2018-06-24T04:09:02.797Z,6.83
2018-06-24T04:13:37.449Z,5.37
2018-06-24T04:18:11.897Z,5.43
2018-06-24T04:22:46.446Z,5.80
2018-06-24T04:27:20.929Z,5.50
2018-06-24T04:31:55.265Z,7.13
2018-06-24T04:36:29.888Z,5.90
2018-06-24T04:41:04.330Z,6.10
2018-06-24T04:45:38.810Z,5.27
2018-06-24T04:50:13.433Z,5.97
2018-06-24T04:54:47.812Z,5.73
2018-06-24T04:59:22.281Z,6.27
2018-06-24T05:03:56.730Z,10.10
2018-06-24T05:08:31.434Z,6.70
2018-06-24T05:13:06.205Z,6.83
2018-06-24T05:17:40.483Z,7.30
2018-06-24T05:22:15.129Z,9.08
2018-06-24T05:26:49.313Z,10.87
2018-06-24T05:31:23.777Z,15.20
2018-06-24T05:35:58.905Z,10.43
2018-06-24T05:40:33.278Z,11.05
2018-06-24T05:45:07.559Z,8.35
2018-06-24T05:49:41.864Z,9.58
2018-06-24T05:54:16.317Z,11.78
2018-06-24T05:58:50.960Z,13.13
2018-06-24T06:03:25.517Z,8.28
2018-06-24T06:08:00.034Z,8.85
2018-06-24T06:12:34.955Z,8.58
2018-06-24T06:17:09.273Z,10.43
2018-06-24T06:21:43.731Z,9.43
2018-06-24T06:26:18.205Z,12.18
2018-06-24T06:30:52.535Z,11.53
2018-06-24T06:35:26.881Z,13.40
2018-06-24T06:40:01.313Z,16.95
2018-06-24T06:44:35.785Z,13.20
2018-06-24T06:49:10.254Z,16.42
2018-06-24T06:53:44.577Z,16.55
2018-06-24T06:58:18.914Z,15.85
2018-06-24T07:02:53.489Z,15.40
2018-06-24T07:07:28.029Z,17.00
2018-06-24T07:12:03.457Z,17.12
2018-06-24T07:16:37.914Z,19.10
2018-06-24T07:21:12.850Z,10.05
2018-06-24T07:25:47.278Z,12.03
2018-06-24T07:30:21.892Z,12.00
2018-06-24T07:34:55.957Z,13.32
2018-06-24T07:39:30.397Z,14.45
2018-06-24T07:44:05.349Z,10.08
2018-06-24T07:48:39.986Z,11.57
2018-06-24T07:53:15.309Z,11.85
2018-06-24T07:57:49.780Z,10.18
2018-06-24T08:02:24.237Z,11.20
2018-06-24T08:06:59.329Z,9.50
2018-06-24T08:11:33.694Z,11.40
2018-06-24T08:16:08.217Z,7.17
2018-06-24T08:20:42.865Z,7.78
2018-06-24T08:25:17.229Z,8.08
2018-06-24T08:29:52.349Z,8.55
2018-06-24T08:34:26.637Z,8.30
2018-06-24T08:39:01.493Z,7.33
2018-06-24T08:43:36.054Z,6.80
2018-06-24T08:48:10.626Z,7.87
2018-06-24T08:52:45.271Z,11.55
2018-06-24T08:57:19.721Z,8.85
2018-06-24T09:01:54.270Z,7.50
2018-06-24T09:06:28.721Z,5.95
2018-06-24T09:11:03.178Z,11.75
2018-06-24T09:15:38.018Z,9.05
2018-06-24T09:20:12.761Z,8.20
2018-06-24T09:24:47.017Z,8.00
2018-06-24T09:29:21.426Z,6.45
2018-06-24T09:33:56.044Z,7.95
2018-06-24T09:38:31.089Z,6.17
2018-06-24T09:43:06.143Z,6.08
2018-06-24T09:47:40.737Z,9.73
2018-06-24T09:52:15.110Z,6.25
2018-06-24T09:56:49.365Z,6.97
2018-06-24T10:01:23.741Z,11.12
2018-06-24T10:05:58.181Z,5.45
2018-06-24T10:10:33.473Z,4.50
2018-06-24T10:15:08.586Z,7.87
2018-06-24T10:19:43.005Z,8.95
2018-06-24T10:24:17.338Z,5.55
2018-06-24T10:28:52.101Z,4.03
2018-06-24T10:33:26.589Z,5.78
2018-06-24T10:38:01.092Z,6.72
2018-06-24T10:42:35.651Z,6.10
2018-06-24T10:47:10.282Z,6.47
2018-06-24T10:51:45.470Z,9.15
2018-06-24T10:56:20.308Z,5.28
2018-06-24T11:00:54.817Z,6.80
2018-06-24T11:05:29.861Z,6.45
2018-06-24T11:10:05.300Z,10.50
2018-06-24T11:14:39.273Z,6.47
2018-06-24T11:19:13.681Z,10.68
2018-06-24T11:23:48.771Z,7.45
2018-06-24T11:28:23.141Z,6.92
2018-06-24T11:32:57.788Z,8.85
2018-06-24T11:37:32.078Z,7.08
2018-06-24T11:42:06.537Z,7.03
2018-06-24T11:46:40.905Z,8.15
2018-06-24T11:51:15.470Z,11.25
2018-06-24T11:55:49.849Z,7.03
2018-06-24T12:00:24.587Z,7.30
2018-06-24T12:04:58.958Z,7.08
2018-06-24T12:09:33.307Z,6.90
2018-06-24T12:14:07.223Z,7.10
2018-06-24T12:18:41.702Z,5.08
2018-06-24T12:23:16.054Z,5.22
2018-06-24T12:27:50.408Z,5.28
2018-06-24T12:32:24.872Z,4.17
2018-06-24T12:36:59.269Z,5.37
2018-06-24T12:41:33.749Z,8.23
2018-06-24T12:46:08.979Z,3.80
2018-06-24T12:50:43.785Z,4.20
2018-06-24T12:55:23.014Z,4.17
2018-06-24T12:59:59.077Z,4.62
2018-06-24T13:04:32.965Z,3.67
2018-06-24T13:09:08.924Z,6.00
2018-06-24T13:13:45.533Z,3.08
2018-06-24T13:18:19.916Z,3.22
2018-06-24T13:22:54.261Z,3.40
2018-06-24T13:27:28.873Z,5.00
2018-06-24T13:32:03.368Z,4.60
2018-06-24T13:36:37.758Z,5.75
2018-06-24T13:41:12.016Z,5.15
2018-06-24T13:45:47.421Z,4.17
2018-06-24T13:50:23.038Z,5.83
2018-06-24T13:54:57.261Z,7.15
2018-06-24T13:59:31.813Z,4.92
2018-06-24T14:04:07.184Z,6.20
2018-06-24T14:08:41.520Z,3.80
2018-06-24T14:13:16.063Z,4.33
2018-06-24T14:17:51.125Z,6.37
2018-06-24T14:22:25.509Z,2.45
2018-06-24T14:27:00.022Z,3.52
2018-06-24T14:31:34.240Z,4.58
2018-06-24T14:36:09.203Z,4.85
2018-06-24T14:40:43.723Z,4.40
2018-06-24T14:45:18.274Z,3.00
2018-06-24T14:49:53.004Z,3.85
2018-06-24T14:54:27.578Z,4.60
2018-06-24T14:59:02.728Z,4.78
2018-06-24T15:03:37.139Z,4.97
2018-06-24T15:08:11.789Z,4.15
2018-06-24T15:12:46.789Z,7.25
2018-06-24T15:17:20.805Z,5.47
2018-06-24T15:21:55.281Z,4.47
2018-06-24T15:26:29.805Z,4.85
2018-06-24T15:31:04.198Z,4.30
2018-06-24T15:35:38.622Z,3.10
2018-06-24T15:40:12.883Z,6.05
2018-06-24T15:44:47.530Z,8.18
2018-06-24T15:49:21.529Z,4.42
2018-06-24T15:53:56.463Z,3.22
2018-06-24T15:58:30.786Z,4.97
2018-06-24T16:03:06.122Z,4.85
2018-06-24T16:07:40.583Z,5.85
2018-06-24T16:12:15.291Z,3.35
2018-06-24T16:16:50.893Z,3.20
2018-06-24T16:21:25.396Z,4.58
2018-06-24T16:25:59.978Z,6.00
2018-06-24T16:30:34.579Z,3.65
2018-06-24T16:35:08.926Z,3.52
2018-06-24T16:39:43.284Z,6.22
2018-06-24T16:44:18.142Z,2.40
2018-06-24T16:48:52.455Z,2.65
2018-06-24T16:53:27.141Z,4.80
2018-06-24T16:58:01.624Z,4.17
2018-06-24T17:02:35.811Z,4.47
2018-06-24T17:07:17.423Z,4.47
2018-06-24T17:11:51.894Z,4.75
2018-06-24T17:16:26.623Z,4.30
2018-06-24T17:21:01.910Z,4.17
2018-06-24T17:25:36.277Z,3.72
2018-06-24T17:30:10.789Z,5.12
2018-06-24T17:34:46.022Z,4.25
2018-06-24T17:39:21.139Z,4.40
2018-06-24T17:43:55.680Z,3.22
2018-06-24T17:48:31.078Z,3.65
2018-06-24T17:53:05.786Z,5.20
2018-06-24T17:57:40.672Z,13.18
2018-06-24T18:02:15.576Z,4.72
2018-06-24T18:06:49.926Z,5.33
2018-06-24T18:11:24.490Z,5.03
2018-06-24T18:15:59.113Z,5.35
2018-06-24T18:20:33.669Z,5.25
2018-06-24T18:25:09.118Z,4.53
2018-06-24T18:29:44.474Z,7.37
2018-06-24T18:34:19.388Z,5.30
2018-06-24T18:38:53.765Z,4.35
2018-06-24T18:43:28.742Z,4.65
2018-06-24T18:48:03.106Z,5.33
2018-06-24T18:52:37.355Z,5.28
2018-06-24T18:57:12.585Z,5.75
2018-06-24T19:01:46.942Z,4.58
2018-06-24T19:06:21.681Z,5.17
2018-06-24T19:10:56.689Z,7.33
2018-06-24T19:15:33.572Z,5.00
2018-06-24T19:20:08.306Z,4.95
2018-06-24T19:24:42.976Z,5.10
2018-06-24T19:29:17.623Z,5.20
2018-06-24T19:33:52.334Z,6.75
2018-06-24T19:38:27.287Z,4.70
2018-06-24T19:43:03.018Z,5.80
2018-06-24T19:47:37.457Z,5.90
2018-06-24T19:52:11.789Z,5.10
2018-06-24T19:56:46.419Z,4.72
2018-06-24T20:01:21.486Z,5.22
2018-06-24T20:05:56.569Z,5.33
2018-06-24T20:10:33.109Z,5.87
2018-06-24T20:15:07.841Z,4.42
2018-06-24T20:19:43.108Z,4.17
2018-06-24T20:24:17.776Z,4.83
2018-06-24T20:28:56.391Z,3.80
2018-06-24T20:33:32.390Z,5.08
2018-06-24T20:38:07.362Z,4.60
2018-06-24T20:42:43.055Z,5.22
2018-06-24T20:47:17.900Z,5.33
2018-06-24T20:51:52.457Z,3.40
2018-06-24T20:56:27.505Z,4.40
2018-06-24T21:01:02.964Z,3.72
2018-06-24T21:05:38.186Z,4.67
2018-06-24T21:10:13.738Z,4.70
2018-06-24T21:14:48.897Z,6.80
2018-06-24T21:19:23.433Z,4.92
2018-06-24T21:23:58.081Z,4.85
2018-06-24T21:28:32.474Z,4.58
2018-06-24T21:33:07.427Z,3.15
2018-06-24T21:37:42.207Z,4.08
2018-06-24T21:42:16.852Z,5.72
2018-06-24T21:46:51.710Z,5.22
2018-06-24T21:51:26.129Z,4.67
2018-06-24T21:56:00.673Z,4.72
2018-06-24T22:00:35.182Z,5.30
2018-06-24T22:05:09.899Z,4.28
2018-06-24T22:09:44.215Z,4.78
2018-06-24T22:14:18.802Z,4.08
2018-06-24T22:18:53.244Z,5.53
2018-06-24T22:23:28.342Z,4.20
2018-06-24T22:28:03.170Z,4.05
2018-06-24T22:32:39.282Z,3.85
2018-06-24T22:37:13.804Z,4.75
2018-06-24T22:41:47.789Z,5.58
2018-06-24T22:46:23.178Z,4.00
2018-06-24T22:50:57.590Z,4.40
2018-06-24T22:55:32.210Z,3.72
2018-06-24T23:00:11.849Z,4.08
2018-06-24T23:04:46.354Z,6.83
2018-06-24T23:09:20.551Z,5.95
2018-06-24T23:13:54.994Z,5.08
2018-06-24T23:18:29.514Z,3.92
2018-06-24T23:23:03.726Z,3.83
2018-06-24T23:27:38.166Z,4.83
2018-06-24T23:32:12.600Z,5.47
2018-06-24T23:36:47.005Z,4.72
2018-06-24T23:41:21.510Z,3.80
2018-06-24T23:45:55.854Z,5.42
2018-06-24T23:50:30.505Z,4.55
2018-06-24T23:55:05.146Z,4.95
2018-06-24T23:59:39.832Z,4.05
